Aviation Digital Data Service (ADDS)

Output produced by METARs form (2122 UTC 31 January 2023)
found at http://www.aviationweather.gov/metar/data/
 
VTCC 312100Z VRB01KT CAVOK 18/15 Q1012 NOSIG
VTCC 312030Z 07001KT CAVOK 18/15 Q1012 NOSIG
VTCC 312000Z 02002KT CAVOK 18/15 Q1012 NOSIG
VTCC 311930Z 02004KT CAVOK 19/15 Q1012 NOSIG
VTCC 311900Z 02003KT CAVOK 18/15 Q1012 NOSIG
VTCC 311830Z 36005KT CAVOK 17/15 Q1012 NOSIG
VTCC 311800Z 35002KT CAVOK 18/15 Q1013 NOSIG
VTCC 311730Z VRB01KT CAVOK 19/15 Q1013 NOSIG
VTCC 311700Z 17003KT CAVOK 20/15 Q1013 NOSIG
VTCC 311630Z 00000KT CAVOK 20/15 Q1013 NOSIG
VTCC 311600Z VRB01KT CAVOK 20/15 Q1012 NOSIG
VTCC 311530Z VRB02KT CAVOK 20/15 Q1012 NOSIG
VTCC 311500Z 26003KT CAVOK 21/15 Q1012 NOSIG
VTCC 311430Z VRB02KT CAVOK 21/15 Q1012 NOSIG
VTCC 311400Z VRB01KT CAVOK 22/15 Q1011 NOSIG
VTCC 311330Z VRB01KT CAVOK 22/14 Q1011 NOSIG
VTCC 311300Z 28005KT 260V010 8000 NSC 23/14 Q1011 NOSIG
VTCC 311230Z 27005KT 250V310 8000 NSC 24/15 Q1010 NOSIG
VTCC 311200Z 26005KT 8000 NSC 24/15 Q1010 NOSIG
VTCC 311130Z 27005KT 8000 NSC 25/15 Q1009 NOSIG
VTCC 311100Z 26004KT 240V300 8000 NSC 27/13 Q1009 NOSIG
VTCC 311030Z VRB02KT 8000 NSC 29/12 Q1009 NOSIG
VTCC 311000Z 18003KT 150V260 8000 NSC 29/12 Q1009 NOSIG
VTCC 310930Z VRB02KT 8000 NSC 29/12 Q1009 NOSIG
VTCC 310900Z 12005KT 070V190 8000 NSC 29/12 Q1009 NOSIG
VTCC 310830Z 17006KT 090V240 8000 NSC 29/12 Q1010 NOSIG
VTCC 310800Z 20004KT 130V300 8000 NSC 29/12 Q1010 NOSIG
VTCC 310730Z 17005KT 090V240 8000 NSC 29/12 Q1010 NOSIG
VTCC 310700Z VRB04KT 8000 NSC 28/13 Q1011 NOSIG
VTCC 310630Z 18006KT 120V260 8000 NSC 28/12 Q1012 NOSIG
VTCC 310600Z 15004KT 080V180 8000 NSC 26/13 Q1013 NOSIG
VTCC 310530Z 20003KT 100V270 8000 NSC 26/14 Q1014 NOSIG
VTCC 310500Z 20004KT 130V260 8000 NSC 25/14 Q1014 NOSIG
VTCC 310430Z VRB02KT 8000 NSC 24/13 Q1015 NOSIG
VTCC 310400Z VRB03KT 8000 NSC 23/13 Q1016 NOSIG
VTCC 310330Z VRB03KT 7000 NSC 22/14 Q1016 NOSIG
VTCC 310300Z VRB02KT 7000 NSC 21/14 Q1017 NOSIG
VTCC 310230Z VRB01KT 7000 NSC 20/14 Q1017 NOSIG
VTCC 310200Z 00000KT 7000 NSC 19/14 Q1016 NOSIG
VTCC 310130Z 00000KT 7000 NSC 18/14 Q1016 NOSIG
VTCC 310100Z 00000KT 7000 NSC 16/14 Q1016 NOSIG
VTCC 310030Z 00000KT 7000 NSC 15/13 Q1016 NOSIG
VTCC 310000Z VRB02KT 7000 NSC 14/13 Q1015 NOSIG
VTCC 302330Z VRB02KT 8000 NSC 15/13 Q1015 NOSIG
VTCC 302300Z 24002KT 8000 NSC 15/13 Q1015 NOSIG
VTCC 302230Z 00000KT 8000 NSC 15/13 Q1015 NOSIG
VTCC 302200Z 00000KT CAVOK 15/14 Q1014 NOSIG
VTCC 302130Z 01002KT CAVOK 15/14 Q1014 NOSIG
VTCC 302100Z 00000KT CAVOK 15/13 Q1014 NOSIG
VTCC 302030Z 28002KT CAVOK 15/14 Q1014 NOSIG
TAF VTCC 311700Z 3118/0124 18005KT 9999 FEW035 
     BECMG 0110/0112 28005KT 
     BECMG 0115/0117 35005KT 
     BECMG 0122/0124 22005KT